Time;durP1;ratioP1;P1;durP2;ratioP2;P2;SDS_P1;SDS_P2;PMS_P1;PMS_P2;Temp;Humidity;BMP_temperature;BMP_pressure;BME280_temperature;BME280_humidity;BME280_pressure;Samples;Min_cycle;Max_cycle;Signal;HPM_P1;HPM_P2
2022/11/19 00:01:12;;;;;;;;;;;;;;;12.48;86.10;94197.09;5053171;28;1121;-60
2022/11/19 00:03:39;;;;;;;;;;;;;;;12.56;86.75;94188.94;5053087;28;900;-60
2022/11/19 00:06:07;;;;;;;;;;;;;;;12.65;86.54;94187.75;5053127;28;982;-60
2022/11/19 00:08:33;;;;;;;;;;;;;;;12.75;85.01;94191.91;5052964;28;962;-60
2022/11/19 00:11:03;;;;;;;;;;;;;;;12.82;84.76;94196.28;5052956;28;1089;-60
2022/11/19 00:13:29;;;;;;;;;;;;;;;12.82;84.57;94209.69;5053203;28;966;-60
2022/11/19 00:15:59;;;;;;;;;;;;;;;12.77;85.70;94197.94;5035309;28;1915;-60
2022/11/19 00:18:25;;;;;;;;;;;;;;;12.78;85.39;94203.06;5053034;28;1010;-60
2022/11/19 00:20:51;;;;;;;;;;;;;;;12.78;84.36;94215.66;5052898;28;1319;-60
2022/11/19 00:23:17;;;;;;;;;;;;;;;12.85;83.73;94213.84;5052828;28;1050;-60
2022/11/19 00:25:43;;;;;;;;;;;;;;;12.89;82.95;94218.59;5053171;28;1026;-60
2022/11/19 00:28:09;;;;;;;;;;;;;;;12.86;83.08;94227.06;5035438;28;974;-60
2022/11/19 00:30:35;;;;;;;;;;;;;;;12.75;83.92;94227.63;5052919;28;967;-60
2022/11/19 00:33:01;;;;;;;;;;;;;;;12.66;84.62;94229.63;5052801;28;1101;-60
2022/11/19 00:35:27;;;;;;;;;;;;;;;12.73;83.33;94234.19;5052708;28;1902;-60
2022/11/19 00:37:53;;;;;;;;;;;;;;;12.72;83.28;94245.97;5035016;28;1723;-60
2022/11/19 00:40:20;;;;;;;;;;;;;;;12.65;83.51;94246.75;5053065;28;1017;-60
2022/11/19 00:43:45;;;;;;;;;;;;;;;12.63;84.30;94261.34;5052695;28;1017;-60
2022/11/19 00:45:32;;;;;;;;;;;;;;;12.63;84.24;94259.50;5052554;28;1108;-60
2022/11/19 00:47:58;;;;;;;;;;;;;;;12.66;84.15;94272.53;5052673;28;1331;-60
2022/11/19 00:50:24;;;;;;;;;;;;;;;12.67;84.65;94271.50;5052530;28;1136;-60
2022/11/19 00:52:50;;;;;;;;;;;;;;;12.67;83.60;94266.16;5035591;28;931;-60
2022/11/19 00:55:16;;;;;;;;;;;;;;;12.60;83.55;94259.91;5038239;28;1910;-60
2022/11/19 00:57:42;;;;;;;;;;;;;;;12.35;84.97;94266.72;5056564;28;1030;-60
2022/11/19 01:00:08;;;;;;;;;;;;;;;12.36;85.75;94268.38;5038733;28;998;-60
2022/11/19 01:02:34;;;;;;;;;;;;;;;12.50;83.61;94264.75;5056162;28;1058;-60
2022/11/19 01:05:01;;;;;;;;;;;;;;;12.56;82.29;94263.16;5038558;28;1285;-60
2022/11/19 01:07:27;;;;;;;;;;;;;;;12.34;83.61;94268.56;5056005;28;1046;-60
2022/11/19 01:09:53;;;;;;;;;;;;;;;12.39;84.12;94273.38;5056295;28;1101;-60
2022/11/19 01:12:19;;;;;;;;;;;;;;;12.60;83.00;94269.81;5056184;28;985;-60
2022/11/19 01:14:45;;;;;;;;;;;;;;;12.66;82.21;94272.53;5038257;28;1987;-60
2022/11/19 01:17:11;;;;;;;;;;;;;;;12.61;82.58;94283.00;5056085;28;1064;-60
2022/11/19 01:19:37;;;;;;;;;;;;;;;12.65;82.64;94284.28;5055806;28;1038;-60
2022/11/19 01:22:03;;;;;;;;;;;;;;;12.75;81.19;94288.47;5055839;28;1062;-60
2022/11/19 01:24:29;;;;;;;;;;;;;;;12.73;81.56;94277.09;5038198;28;1564;-60
2022/11/19 01:26:55;;;;;;;;;;;;;;;12.67;83.23;94271.50;5038135;28;1113;-60
2022/11/19 01:29:21;;;;;;;;;;;;;;;12.78;81.82;94280.03;5055822;28;1057;-60
2022/11/19 01:31:47;;;;;;;;;;;;;;;12.75;82.95;94293.81;5055799;28;983;-60
2022/11/19 01:34:13;;;;;;;;;;;;;;;12.76;83.59;94295.50;5037879;28;1917;-60
2022/11/19 01:36:39;;;;;;;;;;;;;;;12.85;83.45;94291.63;5055604;28;1311;-60
2022/11/19 01:39:06;;;;;;;;;;;;;;;12.94;81.67;94285.09;5055522;28;1437;-60
2022/11/19 01:41:32;;;;;;;;;;;;;;;12.89;81.94;94287.53;5055464;28;1039;-60
2022/11/19 01:43:59;;;;;;;;;;;;;;;12.88;82.39;94292.09;5055458;28;1949;-60
2022/11/19 01:46:27;;;;;;;;;;;;;;;12.89;82.28;94296.41;5055434;28;985;-60
2022/11/19 01:49:00;;;;;;;;;;;;;;;12.82;82.39;94289.34;5055331;28;1088;-60
2022/11/19 01:51:35;;;;;;;;;;;;;;;12.65;83.57;94303.06;5055348;28;1046;-60
2022/11/19 01:54:10;;;;;;;;;;;;;;;12.26;86.48;94306.22;5055130;28;1918;-60
2022/11/19 01:56:36;;;;;;;;;;;;;;;12.37;86.14;94297.66;5055123;28;1116;-60
2022/11/19 01:59:04;;;;;;;;;;;;;;;12.56;85.37;94312.28;5037541;28;1050;-60
2022/11/19 02:01:31;;;;;;;;;;;;;;;12.68;84.59;94321.44;5055082;28;1108;-60
2022/11/19 02:03:59;;;;;;;;;;;;;;;12.66;84.71;94328.84;5055369;28;1053;-60
2022/11/19 02:06:27;;;;;;;;;;;;;;;12.58;85.44;94329.00;5054321;28;1058;-60
2022/11/19 02:08:53;;;;;;;;;;;;;;;12.82;84.72;94324.22;5055162;28;1054;-60
2022/11/19 02:11:19;;;;;;;;;;;;;;;12.84;83.71;94332.88;5054893;28;1105;-60
2022/11/19 02:13:53;;;;;;;;;;;;;;;12.81;84.28;94325.25;5054840;28;1905;-60
2022/11/19 02:16:37;;;;;;;;;;;;;;;12.84;83.96;94331.06;5054819;28;1066;-60
2022/11/19 02:19:33;;;;;;;;;;;;;;;12.77;84.50;94324.81;5055033;28;1021;-61
2022/11/19 02:22:08;;;;;;;;;;;;;;;12.60;85.63;94324.25;4984784;28;1281;-61
2022/11/19 02:24:34;;;;;;;;;;;;;;;12.73;85.72;94323.53;5054680;28;1038;-60
2022/11/19 02:27:19;;;;;;;;;;;;;;;12.90;84.02;94321.41;5054689;28;1049;-60
2022/11/19 02:29:57;;;;;;;;;;;;;;;12.83;85.01;94324.03;5054795;28;1092;-60
2022/11/19 02:32:46;;;;;;;;;;;;;;;12.79;85.49;94327.31;5054592;28;1065;-60
2022/11/19 02:35:18;;;;;;;;;;;;;;;12.59;87.06;94336.00;5054450;28;1917;-60
2022/11/19 02:38:04;;;;;;;;;;;;;;;12.72;86.12;94324.56;5054547;28;1439;-60
2022/11/19 02:40:37;;;;;;;;;;;;;;;12.79;85.69;94330.00;5054303;28;1118;-60
2022/11/19 02:43:15;;;;;;;;;;;;;;;12.77;86.41;94329.34;5054404;28;1014;-60
2022/11/19 02:45:47;;;;;;;;;;;;;;;12.96;85.27;94352.00;5054500;28;1049;-61
2022/11/19 02:48:26;;;;;;;;;;;;;;;12.88;85.33;94356.47;5054451;28;1022;-60
2022/11/19 02:50:54;;;;;;;;;;;;;;;12.65;87.04;94363.91;5054164;28;1284;-60
2022/11/19 02:53:22;;;;;;;;;;;;;;;12.87;85.83;94354.78;5054148;28;1025;-60
2022/11/19 03:06:53;;;;;;;;;;;;;;;12.72;86.43;94377.38;5053950;28;1070;-61
2022/11/19 03:09:19;;;;;;;;;;;;;;;12.81;86.47;94377.03;5054007;28;1060;-61
2022/11/19 03:11:50;;;;;;;;;;;;;;;12.95;85.04;94374.47;5053997;28;994;-61
2022/11/19 03:17:14;;;;;;;;;;;;;;;12.82;85.91;94385.91;5052836;28;1014;-61
2022/11/19 03:19:54;;;;;;;;;;;;;;;12.81;86.01;94384.25;5053874;28;1037;-61
2022/11/19 03:22:23;;;;;;;;;;;;;;;12.91;85.49;94390.13;5053552;28;1070;-61
2022/11/19 03:25:05;;;;;;;;;;;;;;;12.94;85.03;94395.09;5053590;28;1038;-61
2022/11/19 03:27:40;;;;;;;;;;;;;;;12.95;84.70;94401.28;5053674;28;1058;-61
2022/11/19 03:30:06;;;;;;;;;;;;;;;12.81;85.57;94411.09;5053751;28;1045;-61
2022/11/19 03:32:51;;;;;;;;;;;;;;;12.77;85.76;94420.56;5053564;28;1359;-61
2022/11/19 03:35:31;;;;;;;;;;;;;;;12.72;86.23;94421.09;5053270;28;1980;-61
2022/11/19 03:38:01;;;;;;;;;;;;;;;12.82;85.64;94428.81;5053298;28;1245;-61
2022/11/19 03:40:29;;;;;;;;;;;;;;;12.80;85.81;94429.00;5053869;28;961;-61
2022/11/19 03:42:56;;;;;;;;;;;;;;;12.66;86.59;94430.75;5053392;28;1054;-61
2022/11/19 03:45:24;;;;;;;;;;;;;;;12.87;85.56;94434.44;5053318;28;1025;-61
2022/11/19 03:47:51;;;;;;;;;;;;;;;12.81;85.73;94438.75;5053397;28;1166;-61
2022/11/19 03:50:20;;;;;;;;;;;;;;;12.87;85.48;94437.13;5053162;28;1025;-61
2022/11/19 03:52:46;;;;;;;;;;;;;;;12.89;85.07;94432.41;5053475;28;1044;-61
2022/11/19 03:55:13;;;;;;;;;;;;;;;12.91;84.63;94427.66;5053111;28;1993;-61
2022/11/19 03:57:39;;;;;;;;;;;;;;;12.84;84.80;94429.47;5053256;28;1021;-61
2022/11/19 04:00:05;;;;;;;;;;;;;;;12.72;84.09;94439.88;5035698;28;1552;-61
2022/11/19 04:02:32;;;;;;;;;;;;;;;12.61;84.83;94443.91;5053033;28;1132;-61
2022/11/19 04:04:58;;;;;;;;;;;;;;;12.48;85.39;94454.47;5053043;28;1042;-61
2022/11/19 04:07:24;;;;;;;;;;;;;;;12.55;85.04;94452.72;5053249;28;993;-61
2022/11/19 04:09:50;;;;;;;;;;;;;;;12.56;84.40;94448.16;5053020;28;1054;-61
2022/11/19 04:12:20;;;;;;;;;;;;;;;12.23;85.87;94456.69;5052931;28;1038;-61
2022/11/19 04:14:47;;;;;;;;;;;;;;;12.01;86.89;94464.66;5053091;28;1902;-61
2022/11/19 04:17:13;;;;;;;;;;;;;;;12.03;86.88;94456.47;5053099;28;1024;-61
2022/11/19 04:19:39;;;;;;;;;;;;;;;12.22;85.26;94463.06;5052869;28;985;-61
2022/11/19 04:22:05;;;;;;;;;;;;;;;12.10;85.30;94463.56;5053170;28;1338;-61
2022/11/19 04:24:31;;;;;;;;;;;;;;;12.05;85.65;94449.06;5052861;28;1047;-61
2022/11/19 04:26:57;;;;;;;;;;;;;;;12.12;84.51;94452.63;5053126;28;1022;-61
2022/11/19 04:29:23;;;;;;;;;;;;;;;12.00;84.63;94468.34;5055767;28;1038;-61
2022/11/19 04:31:49;;;;;;;;;;;;;;;11.82;85.90;94466.03;5056926;28;1046;-61
2022/11/19 04:34:15;;;;;;;;;;;;;;;12.00;84.64;94467.53;5056583;28;1906;-61
2022/11/19 04:36:42;;;;;;;;;;;;;;;12.01;84.54;94479.91;5039176;28;1625;-61
2022/11/19 04:39:08;;;;;;;;;;;;;;;11.84;86.12;94485.44;5039199;28;1640;-61
2022/11/19 04:41:35;;;;;;;;;;;;;;;12.00;85.24;94481.75;5056718;28;1037;-61
2022/11/19 04:44:01;;;;;;;;;;;;;;;12.11;84.71;94488.50;5056568;28;1054;-62
2022/11/19 04:46:27;;;;;;;;;;;;;;;12.13;84.70;94507.88;5056610;28;990;-61
2022/11/19 04:48:53;;;;;;;;;;;;;;;12.15;84.40;94511.22;5056471;28;1165;-61
2022/11/19 04:51:19;;;;;;;;;;;;;;;12.28;84.00;94507.88;5056648;28;966;-61
2022/11/19 04:53:45;;;;;;;;;;;;;;;12.22;83.90;94514.00;5056624;28;979;-61
2022/11/19 04:56:11;;;;;;;;;;;;;;;12.10;84.59;94519.81;5056017;28;1983;-61
2022/11/19 04:58:37;;;;;;;;;;;;;;;12.24;84.17;94514.63;5056308;28;1037;-61
2022/11/19 05:01:04;;;;;;;;;;;;;;;12.24;83.37;94512.78;5056337;28;1038;-61
2022/11/19 05:03:30;;;;;;;;;;;;;;;12.15;83.21;94521.94;5056218;28;1010;-61
2022/11/19 05:05:56;;;;;;;;;;;;;;;12.10;83.54;94510.94;5056171;28;1046;-61
2022/11/19 05:08:22;;;;;;;;;;;;;;;12.00;84.52;94519.25;5038358;28;1102;-61
2022/11/19 05:10:48;;;;;;;;;;;;;;;11.75;84.85;94524.03;5056264;28;1170;-61
2022/11/19 05:13:14;;;;;;;;;;;;;;;11.73;85.26;94536.78;5056130;28;1050;-61
2022/11/19 05:15:40;;;;;;;;;;;;;;;11.88;84.54;94534.94;5038277;28;1918;-61
2022/11/19 05:18:06;;;;;;;;;;;;;;;12.04;82.01;94538.47;5055933;28;947;-63
2022/11/19 05:20:32;;;;;;;;;;;;;;;11.89;82.64;94542.00;5056076;28;1010;-63
2022/11/19 05:22:58;;;;;;;;;;;;;;;11.63;83.65;94539.72;5056054;28;1025;-62
2022/11/19 05:25:25;;;;;;;;;;;;;;;11.36;85.20;94543.81;5055797;28;1009;-62
2022/11/19 05:27:51;;;;;;;;;;;;;;;11.60;84.41;94540.06;5055727;28;1148;-62
2022/11/19 05:30:17;;;;;;;;;;;;;;;11.61;82.20;94543.56;5055790;28;1021;-62
2022/11/19 05:32:43;;;;;;;;;;;;;;;11.50;83.93;94542.19;5038014;28;1033;-61
2022/11/19 05:35:10;;;;;;;;;;;;;;;11.50;83.99;94537.66;5055833;28;1910;-62
2022/11/19 05:37:36;;;;;;;;;;;;;;;11.63;84.15;94546.91;5038039;28;1426;-61
2022/11/19 05:40:02;;;;;;;;;;;;;;;11.73;82.98;94553.66;5054527;28;1133;-62
2022/11/19 05:42:28;;;;;;;;;;;;;;;11.88;82.37;94556.38;5055974;28;1220;-61
2022/11/19 05:44:54;;;;;;;;;;;;;;;11.99;80.68;94555.13;5037807;28;1169;-61
2022/11/19 05:47:20;;;;;;;;;;;;;;;11.80;81.62;94561.81;5037647;28;1051;-61
2022/11/19 05:49:46;;;;;;;;;;;;;;;11.81;83.50;94562.63;5038052;28;982;-62
2022/11/19 05:52:12;;;;;;;;;;;;;;;11.94;81.50;94565.53;5055566;28;927;-62
2022/11/19 05:54:38;;;;;;;;;;;;;;;11.76;82.22;94581.94;5037369;28;1906;-62
2022/11/19 05:57:04;;;;;;;;;;;;;;;11.76;82.69;94578.41;5055122;28;1073;-62
2022/11/19 05:59:31;;;;;;;;;;;;;;;11.87;82.04;94578.78;5055107;28;1144;-62
2022/11/19 06:01:57;;;;;;;;;;;;;;;11.87;82.60;94592.19;5055209;28;1032;-61
2022/11/19 06:04:24;;;;;;;;;;;;;;;12.61;79.68;94604.78;5055317;28;1088;-61
2022/11/19 06:06:50;;;;;;;;;;;;;;;13.36;76.94;94613.53;5055300;28;1060;-61
2022/11/19 06:09:16;;;;;;;;;;;;;;;14.63;71.47;94607.28;5055180;28;1050;-61
2022/11/19 06:11:51;;;;;;;;;;;;;;;15.76;66.41;94612.19;5037267;28;1048;-62
2022/11/19 06:14:22;;;;;;;;;;;;;;;17.46;61.53;94624.88;5037116;28;1906;-62
2022/11/19 06:16:51;;;;;;;;;;;;;;;19.67;54.91;94623.56;5054869;28;993;-62
2022/11/19 06:19:17;;;;;;;;;;;;;;;20.47;51.54;94623.19;5054695;28;1128;-62
2022/11/19 06:21:44;;;;;;;;;;;;;;;22.01;48.80;94634.56;5037063;28;1082;-61
2022/11/19 06:24:11;;;;;;;;;;;;;;;23.14;46.75;94636.34;5037049;28;1050;-63
2022/11/19 06:26:38;;;;;;;;;;;;;;;24.91;41.74;94644.19;5054642;28;1072;-63
2022/11/19 06:29:04;;;;;;;;;;;;;;;24.15;42.24;94647.94;5037050;28;1342;-62
2022/11/19 06:31:30;;;;;;;;;;;;;;;21.86;48.58;94642.44;5054529;28;1105;-63
2022/11/19 06:33:57;;;;;;;;;;;;;;;20.64;51.44;94644.22;5036869;28;1906;-61
2022/11/19 06:36:23;;;;;;;;;;;;;;;21.23;50.84;94652.31;5054428;28;1067;-61
2022/11/19 06:38:49;;;;;;;;;;;;;;;23.38;46.00;94661.47;5054386;28;1247;-61
2022/11/19 06:41:15;;;;;;;;;;;;;;;23.92;45.26;94652.63;5054423;28;1025;-62
2022/11/19 06:43:42;;;;;;;;;;;;;;;28.42;37.27;94675.06;5036593;28;1152;-62
2022/11/19 06:46:09;;;;;;;;;;;;;;;33.03;30.23;94696.81;5054245;28;1137;-62
2022/11/19 06:48:35;;;;;;;;;;;;;;;36.59;25.16;94719.69;5054432;28;1028;-63
2022/11/19 06:51:01;;;;;;;;;;;;;;;38.13;24.33;94726.56;5054028;28;1200;-63
2022/11/19 06:53:28;;;;;;;;;;;;;;;39.24;22.47;94733.66;5054093;28;1042;-63
2022/11/19 06:55:55;;;;;;;;;;;;;;;39.67;22.64;94734.13;5036244;28;1910;-63
2022/11/19 06:58:21;;;;;;;;;;;;;;;38.64;22.39;94735.41;5053951;28;1043;-64
2022/11/19 07:00:47;;;;;;;;;;;;;;;33.72;27.01;94717.84;5053983;28;1046;-64
2022/11/19 07:03:14;;;;;;;;;;;;;;;35.20;26.36;94732.09;5054022;28;1138;-63
2022/11/19 07:05:40;;;;;;;;;;;;;;;37.06;25.13;94724.31;5054051;28;1041;-63
2022/11/19 07:08:07;;;;;;;;;;;;;;;35.72;25.24;94726.47;5054068;28;982;-62
2022/11/19 07:10:33;;;;;;;;;;;;;;;34.14;27.45;94710.81;5053891;28;966;-63
2022/11/19 07:13:00;;;;;;;;;;;;;;;32.47;28.55;94705.28;5053761;28;1050;-63
2022/11/19 07:15:26;;;;;;;;;;;;;;;31.31;30.80;94699.78;5053875;28;1918;-63
2022/11/19 07:17:53;;;;;;;;;;;;;;;29.25;33.21;94692.56;5036262;28;997;-63
2022/11/19 07:20:19;;;;;;;;;;;;;;;28.38;34.55;94679.47;5053705;28;1025;-62
2022/11/19 07:22:45;;;;;;;;;;;;;;;29.93;32.54;94693.53;5053674;28;1041;-63
2022/11/19 07:25:11;;;;;;;;;;;;;;;31.53;30.43;94706.63;5053756;28;1079;-62
2022/11/19 07:27:47;;;;;;;;;;;;;;;32.91;28.21;94729.78;5035819;28;1093;-62
2022/11/19 07:30:13;;;;;;;;;;;;;;;34.14;26.92;94719.13;5053559;28;1136;-62
2022/11/19 07:32:40;;;;;;;;;;;;;;;32.64;28.13;94717.66;5053519;28;1571;-62
2022/11/19 07:35:08;;;;;;;;;;;;;;;29.87;31.68;94711.25;5053347;28;1991;-62
2022/11/19 07:37:35;;;;;;;;;;;;;;;26.70;36.26;94695.28;5053266;28;1496;-62
2022/11/19 07:40:01;;;;;;;;;;;;;;;24.59;40.40;94666.09;5053398;28;1038;-62
2022/11/19 07:45:12;;;;;;;;;;;;;;;21.23;48.61;94655.88;5053374;28;1050;-62
2022/11/19 07:47:38;;;;;;;;;;;;;;;20.29;51.79;94658.56;5053379;28;1046;-62
2022/11/19 07:50:05;;;;;;;;;;;;;;;19.56;53.58;94649.59;5053390;28;1029;-62
2022/11/19 07:52:31;;;;;;;;;;;;;;;19.02;54.74;94660.25;5053186;28;1038;-62
2022/11/19 07:54:57;;;;;;;;;;;;;;;18.51;57.23;94664.88;5052794;28;1930;-62
2022/11/19 07:57:23;;;;;;;;;;;;;;;18.46;58.27;94664.75;5035766;28;1250;-61
2022/11/19 07:59:49;;;;;;;;;;;;;;;18.31;59.05;94675.91;5053387;28;1033;-61
2022/11/19 08:02:15;;;;;;;;;;;;;;;18.08;60.38;94686.47;5035924;28;1121;-61
2022/11/19 08:04:41;;;;;;;;;;;;;;;17.86;61.50;94678.72;5059451;28;1009;-59
2022/11/19 08:07:07;;;;;;;;;;;;;;;17.75;61.79;94691.00;5042150;28;1427;-60
2022/11/19 08:09:33;;;;;;;;;;;;;;;17.63;62.07;94695.47;5041929;28;1065;-61
2022/11/19 08:12:00;;;;;;;;;;;;;;;17.53;62.86;94695.13;5059746;28;1108;-60
2022/11/19 08:14:26;;;;;;;;;;;;;;;17.50;62.66;94684.72;5059604;28;1997;-60
2022/11/19 08:19:36;;;;;;;;;;;;;;;17.54;63.20;94681.38;5059744;28;1110;-60
2022/11/19 08:22:03;;;;;;;;;;;;;;;17.64;63.46;94680.06;5059805;28;1098;-59
2022/11/19 08:24:29;;;;;;;;;;;;;;;17.67;62.84;94677.75;5059575;28;1550;-60
2022/11/19 08:26:56;;;;;;;;;;;;;;;17.75;62.51;94676.69;5042129;28;1010;-60
2022/11/19 08:29:22;;;;;;;;;;;;;;;17.80;63.05;94682.28;5059525;28;1047;-61
2022/11/19 08:31:49;;;;;;;;;;;;;;;17.93;62.29;94690.34;5059549;28;1058;-62
2022/11/19 08:34:15;;;;;;;;;;;;;;;17.91;62.77;94691.59;5059337;28;1922;-60
2022/11/19 08:36:42;;;;;;;;;;;;;;;18.28;61.42;94683.63;5059515;28;1021;-63
2022/11/19 08:39:08;;;;;;;;;;;;;;;18.63;60.24;94688.53;5059426;28;1169;-61
2022/11/19 08:44:19;;;;;;;;;;;;;;;23.85;46.89;94709.31;5059599;28;1227;-62
2022/11/19 08:46:45;;;;;;;;;;;;;;;30.15;34.97;94737.09;5041864;28;1560;-62
2022/11/19 08:49:11;;;;;;;;;;;;;;;35.18;27.25;94762.16;5059379;28;1020;-61
2022/11/19 08:51:37;;;;;;;;;;;;;;;37.30;25.50;94768.22;5059625;28;978;-63
2022/11/19 08:54:04;;;;;;;;;;;;;;;39.84;23.37;94788.91;5059214;28;1993;-63
2022/11/19 08:56:30;;;;;;;;;;;;;;;41.32;20.74;94794.28;5059203;28;1116;-62
2022/11/19 08:58:56;;;;;;;;;;;;;;;41.67;20.49;94787.00;5059505;28;1029;-63
2022/11/19 09:01:22;;;;;;;;;;;;;;;40.10;21.41;94790.44;5059350;28;1045;-63
2022/11/19 09:03:49;;;;;;;;;;;;;;;34.95;26.08;94764.25;5059232;28;1098;-64
2022/11/19 09:06:15;;;;;;;;;;;;;;;28.53;34.78;94717.91;5059510;28;1034;-63
2022/11/19 09:08:41;;;;;;;;;;;;;;;24.88;41.12;94693.94;5059407;28;996;-63
2022/11/19 09:11:09;;;;;;;;;;;;;;;23.84;44.27;94685.00;5059377;28;1049;-62
2022/11/19 09:13:35;;;;;;;;;;;;;;;22.54;47.78;94665.16;5059084;28;1050;-62
2022/11/19 09:16:02;;;;;;;;;;;;;;;27.22;38.69;94688.66;5038377;28;1914;-62
2022/11/19 09:18:29;;;;;;;;;;;;;;;30.47;33.19;94708.84;5055936;28;1117;-63
2022/11/19 09:20:56;;;;;;;;;;;;;;;29.53;34.60;94690.09;5056225;28;982;-62
2022/11/19 09:23:22;;;;;;;;;;;;;;;28.60;35.50;94679.88;5056040;28;1005;-62
2022/11/19 09:25:58;;;;;;;;;;;;;;;29.23;35.01;94674.72;5038366;28;986;-61
2022/11/19 09:28:25;;;;;;;;;;;;;;;26.79;37.63;94671.72;5055722;28;1046;-62
2022/11/19 09:30:59;;;;;;;;;;;;;;;24.82;41.74;94646.59;5055739;28;1109;-62
2022/11/19 09:33:25;;;;;;;;;;;;;;;22.98;46.04;94645.38;5055685;28;1066;-61
2022/11/19 09:35:51;;;;;;;;;;;;;;;21.78;49.43;94645.56;5055851;28;1902;-60
2022/11/19 09:38:18;;;;;;;;;;;;;;;20.72;52.86;94648.50;5055716;28;1502;-60
2022/11/19 09:40:45;;;;;;;;;;;;;;;20.11;54.42;94654.06;5038050;28;1013;-61
2022/11/19 09:43:14;;;;;;;;;;;;;;;22.80;48.71;94641.00;5055547;28;1120;-61
2022/11/19 09:45:58;;;;;;;;;;;;;;;21.93;49.96;94648.56;5055442;28;1558;-60
2022/11/19 09:48:32;;;;;;;;;;;;;;;20.56;53.99;94645.34;5055373;28;1125;-59
2022/11/19 09:51:10;;;;;;;;;;;;;;;19.69;56.57;94635.84;5055613;28;1062;-60
2022/11/19 09:53:44;;;;;;;;;;;;;;;24.65;45.05;94645.91;5055373;28;1089;-61
2022/11/19 09:56:14;;;;;;;;;;;;;;;22.55;48.38;94623.19;5037328;28;1981;-60
2022/11/19 09:58:41;;;;;;;;;;;;;;;21.21;51.68;94632.72;5055265;28;1038;-60
2022/11/19 10:01:15;;;;;;;;;;;;;;;29.60;36.28;94649.28;5055439;28;962;-62
2022/11/19 10:03:47;;;;;;;;;;;;;;;28.50;36.48;94648.88;5055253;28;1003;-61
2022/11/19 10:06:19;;;;;;;;;;;;;;;27.43;38.48;94640.06;5055157;28;1054;-61
2022/11/19 10:08:45;;;;;;;;;;;;;;;25.06;42.43;94630.63;5055121;28;1042;-60
2022/11/19 10:11:17;;;;;;;;;;;;;;;22.93;47.28;94624.31;5037574;28;1132;-60
2022/11/19 10:13:52;;;;;;;;;;;;;;;21.51;51.89;94632.50;5037326;28;1113;-59
2022/11/19 10:16:21;;;;;;;;;;;;;;;20.95;53.86;94634.06;5055008;28;1983;-60
2022/11/19 10:18:47;;;;;;;;;;;;;;;20.06;54.56;94626.78;5054950;28;1025;-60
2022/11/19 10:21:17;;;;;;;;;;;;;;;19.57;54.04;94618.69;5054820;28;1037;-60
2022/11/19 10:23:47;;;;;;;;;;;;;;;19.31;53.90;94617.16;5055027;28;1092;-60
2022/11/19 10:26:15;;;;;;;;;;;;;;;19.21;54.05;94611.47;5054396;28;962;-60
2022/11/19 10:28:44;;;;;;;;;;;;;;;19.88;52.01;94603.25;5054803;28;1070;-61
2022/11/19 10:31:13;;;;;;;;;;;;;;;20.76;49.86;94604.31;5054607;28;1002;-60
2022/11/19 10:33:47;;;;;;;;;;;;;;;23.64;43.89;94609.13;5054623;28;1319;-60
2022/11/19 10:36:18;;;;;;;;;;;;;;;22.35;45.80;94607.38;5054727;28;1914;-60
2022/11/19 10:39:06;;;;;;;;;;;;;;;21.07;48.46;94607.69;5054453;28;1430;-58
2022/11/19 10:41:35;;;;;;;;;;;;;;;20.22;49.88;94600.84;5053933;28;1412;-60
2022/11/19 10:44:36;;;;;;;;;;;;;;;19.76;51.50;94600.53;5054415;28;1029;-62
2022/11/19 10:47:03;;;;;;;;;;;;;;;20.18;50.86;94602.38;5054533;28;959;-61
2022/11/19 10:49:32;;;;;;;;;;;;;;;20.53;49.62;94598.88;5054340;28;1046;-60
2022/11/19 10:51:58;;;;;;;;;;;;;;;20.38;49.60;94600.16;5054192;28;1122;-59
2022/11/19 10:54:26;;;;;;;;;;;;;;;21.42;47.74;94595.88;5053964;28;1995;-59
2022/11/19 10:56:54;;;;;;;;;;;;;;;20.99;49.00;94589.03;5053917;28;1247;-60
2022/11/19 10:59:23;;;;;;;;;;;;;;;20.47;49.64;94600.63;5053983;28;1055;-60
2022/11/19 11:01:58;;;;;;;;;;;;;;;20.51;49.77;94596.38;5054276;28;970;-61
2022/11/19 11:04:25;;;;;;;;;;;;;;;20.80;50.05;94593.78;5054098;28;1022;-61
2022/11/19 11:06:56;;;;;;;;;;;;;;;20.86;49.38;94598.25;5054059;28;1044;-59
2022/11/19 11:09:28;;;;;;;;;;;;;;;20.60;50.64;94588.72;5053915;28;1069;-61
2022/11/19 11:14:53;;;;;;;;;;;;;;;20.40;52.04;94586.34;5053745;28;1909;-59
2022/11/19 11:17:24;;;;;;;;;;;;;;;20.29;51.97;94582.56;5053744;28;1053;-60
2022/11/19 11:20:04;;;;;;;;;;;;;;;20.56;50.94;94580.19;5053624;28;1155;-60
2022/11/19 11:22:31;;;;;;;;;;;;;;;20.73;50.94;94577.59;5053590;28;1062;-60
2022/11/19 11:24:58;;;;;;;;;;;;;;;20.71;51.05;94566.16;5053928;28;1098;-60
2022/11/19 11:27:24;;;;;;;;;;;;;;;20.77;51.50;94570.66;5053538;28;1106;-60
2022/11/19 11:30:03;;;;;;;;;;;;;;;20.95;50.23;94572.38;5053655;28;1037;-59
2022/11/19 11:32:30;;;;;;;;;;;;;;;20.84;50.77;94565.91;5053498;28;1159;-59
2022/11/19 11:34:56;;;;;;;;;;;;;;;20.93;50.80;94560.94;5053608;28;1993;-60
2022/11/19 11:37:23;;;;;;;;;;;;;;;21.05;51.28;94566.31;5052766;28;1063;-60
2022/11/19 11:39:52;;;;;;;;;;;;;;;21.30;50.13;94568.72;5053250;28;1258;-60
2022/11/19 11:42:18;;;;;;;;;;;;;;;21.51;51.04;94571.88;5053406;28;1013;-59
2022/11/19 11:44:49;;;;;;;;;;;;;;;21.52;50.02;94579.78;5053358;28;986;-59
2022/11/19 11:47:17;;;;;;;;;;;;;;;21.58;49.59;94572.53;5053499;28;1049;-58
2022/11/19 11:49:50;;;;;;;;;;;;;;;21.46;49.87;94578.03;5053510;28;1166;-58
2022/11/19 11:52:18;;;;;;;;;;;;;;;21.43;50.32;94571.16;5053298;28;1215;-57
2022/11/19 11:54:55;;;;;;;;;;;;;;;21.26;51.08;94581.16;5035392;28;1902;-57
2022/11/19 11:57:25;;;;;;;;;;;;;;;21.14;50.77;94575.75;5053161;28;1078;-57
2022/11/19 11:59:51;;;;;;;;;;;;;;;21.12;50.71;94568.91;5053173;28;1086;-57
2022/11/19 12:02:31;;;;;;;;;;;;;;;20.97;52.04;94566.72;5035658;28;1222;-57
2022/11/19 12:04:59;;;;;;;;;;;;;;;20.95;51.26;94571.56;5053181;28;1071;-57
2022/11/19 12:07:25;;;;;;;;;;;;;;;21.14;50.87;94564.06;5053160;28;947;-57
2022/11/19 12:09:51;;;;;;;;;;;;;;;21.24;51.22;94567.78;5053115;28;1118;-57
2022/11/19 12:12:33;;;;;;;;;;;;;;;21.13;51.25;94554.25;5053221;28;1335;-57
2022/11/19 12:15:08;;;;;;;;;;;;;;;21.09;50.68;94562.06;5053077;28;1902;-57
2022/11/19 12:17:53;;;;;;;;;;;;;;;21.17;50.97;94560.84;5053123;28;1026;-57
2022/11/19 12:20:28;;;;;;;;;;;;;;;21.23;50.46;94557.19;5052929;28;1121;-57
2022/11/19 12:23:06;;;;;;;;;;;;;;;21.15;51.05;94563.84;5053244;28;1014;-58
2022/11/19 12:25:58;;;;;;;;;;;;;;;21.13;51.01;94560.50;5052935;28;1070;-58
2022/11/19 12:28:34;;;;;;;;;;;;;;;21.20;51.15;94565.81;5029633;28;1167;-58
2022/11/19 12:31:03;;;;;;;;;;;;;;;21.12;51.37;94561.59;5052963;28;1029;-58
2022/11/19 12:33:29;;;;;;;;;;;;;;;20.98;51.26;94568.34;5052879;28;1069;-58
2022/11/19 12:36:07;;;;;;;;;;;;;;;20.92;51.32;94563.88;5052769;28;1980;-58
2022/11/19 12:38:37;;;;;;;;;;;;;;;20.88;51.32;94560.00;5052920;28;1724;-58
2022/11/19 12:41:18;;;;;;;;;;;;;;;20.90;51.35;94552.44;5052852;28;1097;-58
2022/11/19 12:43:58;;;;;;;;;;;;;;;20.88;52.11;94557.28;5053073;28;1018;-58
2022/11/19 12:46:33;;;;;;;;;;;;;;;20.79;51.63;94554.09;5052838;28;1063;-58
2022/11/19 12:49:37;;;;;;;;;;;;;;;20.71;52.16;94558.00;5053579;28;1033;-58
2022/11/19 12:52:12;;;;;;;;;;;;;;;20.65;51.94;94561.69;4995080;28;1421;-58
2022/11/19 12:54:43;;;;;;;;;;;;;;;20.52;52.40;94564.63;4994830;28;1914;-57
2022/11/19 12:57:18;;;;;;;;;;;;;;;20.47;52.78;94566.16;5029552;28;1123;-58
2022/11/19 13:00:03;;;;;;;;;;;;;;;20.43;52.83;94562.28;5056414;28;1074;-58
2022/11/19 13:02:44;;;;;;;;;;;;;;;20.41;52.62;94564.41;5056325;28;1046;-58
2022/11/19 13:05:24;;;;;;;;;;;;;;;20.45;53.66;94570.16;5056279;28;1058;-58
2022/11/19 13:08:07;;;;;;;;;;;;;;;20.48;52.91;94570.50;5056296;28;1058;-58
2022/11/19 13:10:43;;;;;;;;;;;;;;;20.45;52.58;94565.56;5056083;28;1109;-58
2022/11/19 13:13:12;;;;;;;;;;;;;;;20.47;53.44;94557.19;5056709;28;947;-58
2022/11/19 13:15:43;;;;;;;;;;;;;;;20.60;52.21;94565.13;5055965;28;1981;-58
2022/11/19 13:18:12;;;;;;;;;;;;;;;20.57;52.45;94572.88;5056133;28;1033;-58
2022/11/19 13:20:38;;;;;;;;;;;;;;;20.59;51.90;94587.06;5056030;28;1044;-58
2022/11/19 13:23:05;;;;;;;;;;;;;;;20.57;51.56;94557.41;5055904;28;1062;-58
2022/11/19 13:25:31;;;;;;;;;;;;;;;20.62;51.62;94554.84;5038375;28;1018;-58
2022/11/19 13:28:00;;;;;;;;;;;;;;;20.57;51.63;94562.03;5056090;28;1042;-58
2022/11/19 13:30:28;;;;;;;;;;;;;;;20.55;52.07;94564.16;5055788;28;1054;-57
2022/11/19 13:33:13;;;;;;;;;;;;;;;20.49;52.40;94576.78;5038280;28;1057;-58